createdAt,value
2023-02-14T00:00:25.104Z,6.14
2023-02-14T00:05:30.260Z,6.29
2023-02-14T00:10:35.233Z,6.31
2023-02-14T00:15:42.924Z,5.90
2023-02-14T00:20:47.893Z,6.07
2023-02-14T00:25:53.052Z,6.00
2023-02-14T00:31:04.129Z,6.08
2023-02-14T00:36:10.506Z,6.22
2023-02-14T00:41:19.347Z,6.20
2023-02-14T00:46:27.741Z,6.04
2023-02-14T00:51:33.938Z,6.33
2023-02-14T00:56:40.620Z,6.39
2023-02-14T01:01:50.398Z,6.09
2023-02-14T01:06:55.346Z,5.95
2023-02-14T01:12:00.295Z,5.90
2023-02-14T01:17:07.854Z,5.94
2023-02-14T01:22:12.880Z,6.22
2023-02-14T01:27:17.726Z,6.08
2023-02-14T01:32:27.625Z,5.90
2023-02-14T01:37:33.295Z,5.69
2023-02-14T01:42:39.416Z,5.71
2023-02-14T01:47:49.619Z,5.69
2023-02-14T01:52:58.330Z,5.87
2023-02-14T01:58:07.435Z,5.86
2023-02-14T02:03:16.693Z,5.98
2023-02-14T02:08:21.754Z,6.12
2023-02-14T02:13:26.932Z,6.25
2023-02-14T02:18:51.383Z,6.07
2023-02-14T02:24:18.121Z,5.89
2023-02-14T02:29:48.725Z,5.92
2023-02-14T02:35:18.627Z,6.04
2023-02-14T02:40:31.773Z,6.05
2023-02-14T02:46:01.502Z,5.63
2023-02-14T02:51:29.555Z,5.91
2023-02-14T02:56:49.985Z,6.18
2023-02-14T03:02:03.086Z,6.23
2023-02-14T03:07:23.160Z,6.15
2023-02-14T03:12:51.890Z,6.02
2023-02-14T03:18:04.957Z,5.91
2023-02-14T03:23:21.721Z,5.80
2023-02-14T03:28:35.961Z,6.02
2023-02-14T03:33:48.914Z,5.90
2023-02-14T03:39:01.737Z,5.97
2023-02-14T03:44:11.536Z,6.24
2023-02-14T03:49:20.978Z,6.22
2023-02-14T03:54:30.238Z,6.23
2023-02-14T03:59:35.322Z,6.01
2023-02-14T04:04:44.217Z,5.92
2023-02-14T04:09:52.542Z,5.68
2023-02-14T04:14:57.630Z,5.78
2023-02-14T04:20:02.750Z,5.90
2023-02-14T04:25:10.774Z,5.79
2023-02-14T04:30:18.237Z,6.04
2023-02-14T04:35:24.789Z,6.17
2023-02-14T04:40:32.650Z,6.16
2023-02-14T04:45:37.694Z,5.80
2023-02-14T04:50:43.070Z,6.09
2023-02-14T04:55:51.794Z,6.10
2023-02-14T05:00:56.755Z,5.99
2023-02-14T05:06:01.807Z,5.63
2023-02-14T05:11:09.587Z,5.41
2023-02-14T05:16:15.800Z,5.77
2023-02-14T05:21:21.198Z,5.70
2023-02-14T05:26:31.187Z,5.96
2023-02-14T05:31:37.813Z,5.99
2023-02-14T05:36:42.898Z,5.91
2023-02-14T05:41:50.756Z,5.99
2023-02-14T05:46:55.815Z,5.96
2023-02-14T05:52:00.772Z,6.02
2023-02-14T05:57:08.348Z,5.89
2023-02-14T06:02:14.341Z,5.96
2023-02-14T06:07:19.670Z,5.68
2023-02-14T06:12:27.502Z,5.87
2023-02-14T06:17:33.457Z,5.77
2023-02-14T06:22:39.303Z,5.86
2023-02-14T06:28:11.210Z,5.97
2023-02-14T06:33:53.166Z,5.86
2023-02-14T06:39:02.355Z,5.84
2023-02-14T06:44:10.576Z,6.05
2023-02-14T06:49:17.219Z,6.01
2023-02-14T06:54:22.453Z,5.87
2023-02-14T06:59:30.486Z,6.02
2023-02-14T07:04:37.112Z,6.10
2023-02-14T07:09:42.385Z,5.95
2023-02-14T07:14:49.956Z,6.09
2023-02-14T07:19:55.028Z,6.19
2023-02-14T07:25:00.009Z,6.20
2023-02-14T07:30:09.175Z,6.16
2023-02-14T07:35:15.347Z,6.00
2023-02-14T07:40:25.363Z,6.24
2023-02-14T07:45:33.589Z,6.30
2023-02-14T07:50:38.529Z,6.07
2023-02-14T07:55:43.857Z,5.53
2023-02-14T08:00:51.722Z,5.91
2023-02-14T08:05:59.810Z,6.05
2023-02-14T08:11:05.041Z,6.09
2023-02-14T08:16:12.803Z,6.30
2023-02-14T08:21:17.943Z,6.20
2023-02-14T08:26:23.016Z,6.07
2023-02-14T08:31:36.119Z,5.91
2023-02-14T08:36:43.846Z,5.49
2023-02-14T08:41:51.134Z,5.37
2023-02-14T08:46:58.866Z,5.87
2023-02-14T08:52:04.094Z,5.49
2023-02-14T08:57:10.543Z,5.65
2023-02-14T09:02:19.149Z,5.32
2023-02-14T09:07:32.181Z,5.10
2023-02-14T09:12:37.337Z,5.41
2023-02-14T09:17:51.256Z,5.66
2023-02-14T09:22:59.263Z,6.01
2023-02-14T09:28:05.766Z,5.98
2023-02-14T09:33:17.893Z,6.26
2023-02-14T09:38:22.899Z,6.23
2023-02-14T09:43:37.068Z,5.41
2023-02-14T09:48:49.386Z,6.08
2023-02-14T09:54:03.058Z,6.26
2023-02-14T09:59:18.879Z,6.21
2023-02-14T10:04:35.227Z,6.35
2023-02-14T10:09:58.244Z,6.08
2023-02-14T10:15:07.663Z,6.07
2023-02-14T10:20:27.688Z,6.50
2023-02-14T10:26:00.471Z,6.16
2023-02-14T10:31:22.103Z,6.29
2023-02-14T10:36:47.132Z,6.36
2023-02-14T10:42:07.362Z,6.19
2023-02-14T10:47:37.250Z,6.25
2023-02-14T10:52:59.162Z,6.13
2023-02-14T10:58:12.494Z,5.87
2023-02-14T11:03:18.137Z,5.68
2023-02-14T11:08:29.810Z,5.89
2023-02-14T11:13:37.781Z,6.45
2023-02-14T11:18:43.899Z,6.63
2023-02-14T11:23:54.128Z,6.49
2023-02-14T11:29:02.354Z,6.02
2023-02-14T11:34:29.112Z,5.25
2023-02-14T11:39:38.343Z,5.58
2023-02-14T11:45:01.595Z,6.05
2023-02-14T11:50:13.606Z,5.85
2023-02-14T11:55:33.932Z,5.62
2023-02-14T12:00:43.997Z,5.56
2023-02-14T12:05:57.417Z,5.26
2023-02-14T12:11:21.000Z,5.26
2023-02-14T12:16:43.022Z,5.46
2023-02-14T12:21:56.361Z,5.00
2023-02-14T12:27:23.087Z,5.00
2023-02-14T12:32:30.685Z,4.91
2023-02-14T12:38:02.775Z,4.89
2023-02-14T12:43:43.290Z,4.90
2023-02-14T12:49:08.485Z,4.82
2023-02-14T12:54:37.298Z,4.93
2023-02-14T12:59:50.411Z,4.88
2023-02-14T13:05:05.126Z,5.28
2023-02-14T13:10:22.370Z,5.14
2023-02-14T13:15:40.173Z,4.80
2023-02-14T13:20:53.123Z,4.98
2023-02-14T13:26:03.470Z,5.08
2023-02-14T13:31:13.227Z,5.27
2023-02-14T13:36:22.708Z,5.51
2023-02-14T13:41:33.550Z,5.09
2023-02-14T13:47:06.506Z,5.09
2023-02-14T13:52:13.039Z,5.43
2023-02-14T13:57:37.232Z,5.88
2023-02-14T14:02:53.430Z,5.94
2023-02-14T14:08:38.115Z,5.94
2023-02-14T14:13:59.334Z,5.76
2023-02-14T14:19:14.454Z,5.54
2023-02-14T14:24:25.919Z,4.94
2023-02-14T14:29:34.741Z,4.98
2023-02-14T14:34:55.675Z,5.53
2023-02-14T14:40:02.943Z,5.55
2023-02-14T14:45:13.742Z,5.20
2023-02-14T14:50:25.415Z,4.90
2023-02-14T14:55:34.085Z,5.26
2023-02-14T15:00:42.648Z,5.35
2023-02-14T15:05:53.931Z,5.33
2023-02-14T15:11:03.093Z,5.05
2023-02-14T15:16:08.821Z,5.09
2023-02-14T15:21:18.390Z,5.18
2023-02-14T15:26:33.184Z,5.14
2023-02-14T15:31:42.486Z,5.05
2023-02-14T15:36:54.320Z,4.98
2023-02-14T15:41:59.470Z,4.99
2023-02-14T15:47:08.608Z,4.84
2023-02-14T15:52:17.505Z,4.79
2023-02-14T15:57:27.402Z,4.89
2023-02-14T16:02:37.894Z,4.77
2023-02-14T16:07:59.503Z,4.77
2023-02-14T16:13:06.721Z,4.46
2023-02-14T16:18:21.948Z,4.47
2023-02-14T16:23:33.311Z,4.26
2023-02-14T16:28:41.090Z,4.35
2023-02-14T16:33:47.540Z,4.05
2023-02-14T16:38:56.416Z,3.82
2023-02-14T16:44:01.396Z,3.72
2023-02-14T16:49:06.692Z,3.65
2023-02-14T16:54:18.356Z,3.48
2023-02-14T16:59:23.513Z,3.51
2023-02-14T17:04:29.356Z,3.32
2023-02-14T17:09:43.061Z,3.22
2023-02-14T17:14:52.604Z,3.32
2023-02-14T17:19:57.528Z,3.26
2023-02-14T17:25:05.424Z,3.11
2023-02-14T17:30:14.407Z,2.99
2023-02-14T17:35:21.417Z,3.03
2023-02-14T17:40:30.577Z,2.99
2023-02-14T17:45:35.618Z,2.90
2023-02-14T17:50:40.657Z,2.83
2023-02-14T17:55:48.346Z,2.80
2023-02-14T18:00:53.335Z,2.72
2023-02-14T18:06:02.769Z,2.66
2023-02-14T18:11:11.934Z,2.57
2023-02-14T18:16:19.128Z,2.55
2023-02-14T18:21:24.729Z,2.57
2023-02-14T18:26:33.788Z,2.54
2023-02-14T18:31:42.904Z,2.41
2023-02-14T18:36:48.365Z,2.46
2023-02-14T18:42:00.070Z,2.46
2023-02-14T18:47:12.611Z,2.55
2023-02-14T18:52:18.165Z,2.35
2023-02-14T18:57:25.976Z,2.26
2023-02-14T19:02:32.827Z,2.18
2023-02-14T19:07:38.675Z,2.16
2023-02-14T19:12:46.498Z,2.13
2023-02-14T19:17:53.097Z,2.04
2023-02-14T19:22:58.203Z,1.99
2023-02-14T19:28:06.720Z,2.04
2023-02-14T19:33:14.489Z,2.05
2023-02-14T19:38:20.301Z,2.05
2023-02-14T19:43:29.112Z,2.06
2023-02-14T19:48:37.276Z,2.07
2023-02-14T19:53:45.408Z,2.06
2023-02-14T19:58:54.854Z,2.10
2023-02-14T20:04:01.853Z,2.09
2023-02-14T20:09:12.943Z,2.09
2023-02-14T20:14:24.369Z,2.08
2023-02-14T20:19:35.410Z,2.00
2023-02-14T20:24:45.093Z,1.99
2023-02-14T20:29:55.550Z,1.99
2023-02-14T20:35:11.310Z,2.00
2023-02-14T20:40:18.201Z,1.99
2023-02-14T20:45:26.590Z,1.96
2023-02-14T20:50:36.056Z,2.04
2023-02-14T20:55:44.962Z,1.99
2023-02-14T21:00:54.982Z,1.93
2023-02-14T21:06:03.024Z,1.95
2023-02-14T21:11:10.996Z,1.98
2023-02-14T21:16:20.926Z,2.04
2023-02-14T21:21:32.482Z,2.02
2023-02-14T21:26:37.975Z,2.11
2023-02-14T21:31:47.403Z,1.98
2023-02-14T21:36:56.386Z,2.01
2023-02-14T21:42:02.180Z,2.14
2023-02-14T21:47:10.027Z,2.02
2023-02-14T21:52:15.253Z,1.90
2023-02-14T21:57:20.172Z,1.97
2023-02-14T22:02:27.836Z,2.05
2023-02-14T22:07:34.841Z,1.94
2023-02-14T22:12:42.435Z,1.91
2023-02-14T22:17:51.025Z,1.90
2023-02-14T22:22:55.992Z,1.90
2023-02-14T22:28:01.372Z,1.82
2023-02-14T22:33:08.981Z,1.80
2023-02-14T22:38:14.964Z,1.79
2023-02-14T22:43:22.179Z,1.78
2023-02-14T22:48:34.796Z,1.83
2023-02-14T22:53:40.189Z,1.81
2023-02-14T22:58:50.623Z,1.76
2023-02-14T23:04:03.711Z,1.76
2023-02-14T23:09:10.936Z,1.76
2023-02-14T23:14:29.451Z,1.82
2023-02-14T23:19:50.793Z,1.79
2023-02-14T23:24:57.361Z,1.79
2023-02-14T23:30:04.040Z,1.76
2023-02-14T23:35:15.063Z,1.77
2023-02-14T23:40:20.482Z,1.78
2023-02-14T23:45:38.883Z,1.71
2023-02-14T23:50:46.798Z,1.73
2023-02-14T23:55:51.831Z,1.68
